createdAt,value
2018-08-23T00:00:07.456Z,45.06
2018-08-23T00:01:07.360Z,44.76
2018-08-23T00:02:07.301Z,45.65
2018-08-23T00:03:07.229Z,45.45
2018-08-23T00:04:07.100Z,45.85
2018-08-23T00:05:07.020Z,45.56
2018-08-23T00:06:06.927Z,45.85
2018-08-23T00:07:06.866Z,44.76
2018-08-23T00:08:06.762Z,45.08
2018-08-23T00:09:06.662Z,45.38
2018-08-23T00:10:06.581Z,45.56
2018-08-23T00:11:06.495Z,45.57
2018-08-23T00:12:06.428Z,44.86
2018-08-23T00:13:06.315Z,45.78
2018-08-23T00:14:06.226Z,45.38
2018-08-23T00:15:06.140Z,45.57
2018-08-23T00:16:06.054Z,45.57
2018-08-23T00:17:05.998Z,45.48
2018-08-23T00:18:05.886Z,45.28
2018-08-23T00:19:05.798Z,45.60
2018-08-23T00:20:05.709Z,45.87
2018-08-23T00:21:05.630Z,45.48
2018-08-23T00:22:05.578Z,45.68
2018-08-23T00:23:05.465Z,45.68
2018-08-23T00:24:05.382Z,45.90
2018-08-23T00:25:05.296Z,45.60
2018-08-23T00:26:05.216Z,45.50
2018-08-23T00:27:05.177Z,46.39
2018-08-23T00:28:05.051Z,45.82
2018-08-23T00:29:04.967Z,46.22
2018-08-23T00:30:04.890Z,46.42
2018-08-23T00:31:04.805Z,46.22
2018-08-23T00:32:04.748Z,46.71
2018-08-23T00:33:04.637Z,46.91
2018-08-23T00:34:04.544Z,47.11
2018-08-23T00:35:04.463Z,47.23
2018-08-23T00:36:04.370Z,47.53
2018-08-23T00:37:04.310Z,47.33
2018-08-23T00:38:04.201Z,47.43
2018-08-23T00:39:04.118Z,47.75
2018-08-23T00:40:04.040Z,47.75
2018-08-23T00:41:03.958Z,47.85
2018-08-23T00:42:03.918Z,47.75
2018-08-23T00:43:03.810Z,47.45
2018-08-23T00:44:03.724Z,48.37
2018-08-23T00:45:03.647Z,48.27
2018-08-23T00:46:03.571Z,48.47
2018-08-23T00:47:03.494Z,48.69
2018-08-23T00:48:03.447Z,48.89
2018-08-23T00:49:03.349Z,48.89
2018-08-23T00:50:03.284Z,49.19
2018-08-23T00:51:03.213Z,49.41
2018-08-23T00:52:03.152Z,49.11
2018-08-23T00:53:03.097Z,49.41
2018-08-23T00:54:03.014Z,50.31
2018-08-23T00:55:02.930Z,49.93
2018-08-23T00:56:02.874Z,49.80
2018-08-23T00:57:02.795Z,49.43
2018-08-23T00:58:02.752Z,49.83
2018-08-23T00:59:02.656Z,49.83
2018-08-23T01:00:02.614Z,49.53
2018-08-23T01:01:02.520Z,49.80
2018-08-23T01:02:02.453Z,49.41
2018-08-23T01:03:02.409Z,49.21
2018-08-23T01:04:02.314Z,49.21
2018-08-23T01:05:02.247Z,48.81
2018-08-23T01:06:02.171Z,49.31
2018-08-23T01:07:02.103Z,48.71
2018-08-23T01:08:02.063Z,48.71
2018-08-23T01:09:01.967Z,48.71
2018-08-23T01:10:01.904Z,48.69
2018-08-23T01:11:01.829Z,48.99
2018-08-23T01:12:01.759Z,48.79
2018-08-23T01:13:01.725Z,47.99
2018-08-23T01:14:01.611Z,48.10
2018-08-23T01:15:01.539Z,48.10
2018-08-23T01:16:01.478Z,48.27
2018-08-23T01:17:01.456Z,47.99
2018-08-23T01:18:01.331Z,47.67
2018-08-23T01:19:01.297Z,47.97
2018-08-23T01:20:01.198Z,47.38
2018-08-23T01:21:01.120Z,48.57
2018-08-23T01:22:01.047Z,47.28
2018-08-23T01:23:00.976Z,47.77
2018-08-23T01:24:00.934Z,47.47
2018-08-23T01:25:00.836Z,48.27
2018-08-23T01:26:00.763Z,48.77
2018-08-23T01:27:00.691Z,47.57
2018-08-23T01:28:00.620Z,48.07
2018-08-23T01:29:00.567Z,47.77
2018-08-23T01:30:00.474Z,48.47
2018-08-23T01:31:00.408Z,48.07
2018-08-23T01:32:00.341Z,48.47
2018-08-23T01:33:00.274Z,47.97
2018-08-23T01:34:00.232Z,47.38
2018-08-23T01:35:00.133Z,47.38
2018-08-23T01:36:00.068Z,48.77
2018-08-23T01:37:00.003Z,47.57
2018-08-23T01:37:59.930Z,47.97
2018-08-23T01:38:59.889Z,48.27
2018-08-23T01:39:59.799Z,47.87
2018-08-23T01:40:59.724Z,48.07
2018-08-23T01:41:59.658Z,48.07
2018-08-23T01:42:59.588Z,47.97
2018-08-23T01:43:59.544Z,48.86
2018-08-23T01:44:59.450Z,48.57
2018-08-23T01:45:59.391Z,49.26
2018-08-23T01:46:59.317Z,48.57
2018-08-23T01:47:59.251Z,49.26
2018-08-23T01:48:59.207Z,49.26
2018-08-23T01:49:59.110Z,49.07
2018-08-23T01:50:59.034Z,48.57
2018-08-23T01:51:58.966Z,49.08
2018-08-23T01:52:58.895Z,49.19
2018-08-23T01:53:58.851Z,48.86
2018-08-23T01:54:58.752Z,48.59
2018-08-23T01:55:58.689Z,48.47
2018-08-23T01:56:58.608Z,49.29
2018-08-23T01:57:58.540Z,49.36
2018-08-23T01:58:58.511Z,49.08
2018-08-23T01:59:58.401Z,49.58
2018-08-23T02:00:58.327Z,50.10
2018-08-23T02:01:58.257Z,50.20
2018-08-23T02:02:58.191Z,49.51
2018-08-23T02:03:58.121Z,50.10
2018-08-23T02:04:58.081Z,49.53
2018-08-23T02:05:57.986Z,49.80
2018-08-23T02:06:57.922Z,49.80
2018-08-23T02:07:57.859Z,49.51
2018-08-23T02:08:57.792Z,49.80
2018-08-23T02:09:57.752Z,49.91
2018-08-23T02:10:57.662Z,49.21
2018-08-23T02:11:57.597Z,49.51
2018-08-23T02:12:57.535Z,50.40
2018-08-23T02:13:57.475Z,50.10
2018-08-23T02:14:57.442Z,50.31
2018-08-23T02:15:57.351Z,49.91
2018-08-23T02:16:57.289Z,49.80
2018-08-23T02:17:57.219Z,50.50
2018-08-23T02:18:57.152Z,50.10
2018-08-23T02:19:57.117Z,50.70
2018-08-23T02:20:57.024Z,50.73
2018-08-23T02:21:56.962Z,50.82
2018-08-23T02:22:56.900Z,51.52
2018-08-23T02:23:56.845Z,51.45
2018-08-23T02:24:56.804Z,50.65
2018-08-23T02:25:56.720Z,51.15
2018-08-23T02:26:56.656Z,51.15
2018-08-23T02:27:56.596Z,50.65
2018-08-23T02:28:56.538Z,50.95
2018-08-23T02:29:56.506Z,51.65
2018-08-23T02:30:56.421Z,51.84
2018-08-23T02:31:56.368Z,51.65
2018-08-23T02:32:56.312Z,51.45
2018-08-23T02:33:56.255Z,51.84
2018-08-23T02:34:56.229Z,51.54
2018-08-23T02:35:56.139Z,51.54
2018-08-23T02:36:56.086Z,51.75
2018-08-23T02:37:56.032Z,51.95
2018-08-23T02:38:55.973Z,52.24
2018-08-23T02:39:55.947Z,51.05
2018-08-23T02:40:55.872Z,51.54
2018-08-23T02:41:55.822Z,52.04
2018-08-23T02:42:55.770Z,51.84
2018-08-23T02:43:55.719Z,51.05
2018-08-23T02:44:55.701Z,51.54
2018-08-23T02:45:55.614Z,51.75
2018-08-23T02:46:55.557Z,51.35
2018-08-23T02:47:55.501Z,51.65
2018-08-23T02:48:55.443Z,51.95
2018-08-23T02:49:55.386Z,51.65
2018-08-23T02:50:55.357Z,51.65
2018-08-23T02:51:55.273Z,51.54
2018-08-23T02:52:55.217Z,51.65
2018-08-23T02:53:55.156Z,52.14
2018-08-23T02:54:55.101Z,52.34
2018-08-23T02:55:55.071Z,52.37
2018-08-23T02:56:54.984Z,52.17
2018-08-23T02:57:54.933Z,52.27
2018-08-23T02:58:54.881Z,52.86
2018-08-23T02:59:54.830Z,52.99
2018-08-23T03:00:54.807Z,53.29
2018-08-23T03:01:54.723Z,53.09
2018-08-23T03:02:54.670Z,52.69
2018-08-23T03:03:54.619Z,52.69
2018-08-23T03:04:54.572Z,52.99
2018-08-23T03:05:54.550Z,52.49
2018-08-23T03:06:54.488Z,52.29
2018-08-23T03:07:54.427Z,52.19
2018-08-23T03:08:54.380Z,52.49
2018-08-23T03:09:54.331Z,52.17
2018-08-23T03:10:54.317Z,53.49
2018-08-23T03:11:54.230Z,52.39
2018-08-23T03:12:54.176Z,52.79
2018-08-23T03:13:54.190Z,52.79
2018-08-23T03:14:54.078Z,52.39
2018-08-23T03:15:54.052Z,52.19
2018-08-23T03:16:53.973Z,52.39
2018-08-23T03:17:53.922Z,53.39
2018-08-23T03:18:53.869Z,53.29
2018-08-23T03:19:53.816Z,52.39
2018-08-23T03:20:53.793Z,53.09
2018-08-23T03:21:53.718Z,52.79
2018-08-23T03:22:53.674Z,52.79
2018-08-23T03:23:53.620Z,53.29
2018-08-23T03:24:53.567Z,53.39
2018-08-23T03:25:53.538Z,53.89
2018-08-23T03:26:53.462Z,53.89
2018-08-23T03:27:53.408Z,53.81
2018-08-23T03:28:53.359Z,53.91
2018-08-23T03:29:53.321Z,53.31
2018-08-23T03:30:53.291Z,53.02
2018-08-23T03:31:53.208Z,54.01
2018-08-23T03:32:53.167Z,53.71
2018-08-23T03:33:53.106Z,53.52
2018-08-23T03:34:53.056Z,53.61
2018-08-23T03:35:53.030Z,53.02
2018-08-23T03:36:52.956Z,53.61
2018-08-23T03:37:52.901Z,53.71
2018-08-23T03:38:52.850Z,53.91
2018-08-23T03:39:52.815Z,53.41
2018-08-23T03:40:52.780Z,53.81
2018-08-23T03:41:52.702Z,54.11
2018-08-23T03:42:52.653Z,54.01
2018-08-23T03:43:52.601Z,54.19
2018-08-23T03:44:52.553Z,54.21
2018-08-23T03:45:52.506Z,54.81
2018-08-23T03:46:52.479Z,54.94
2018-08-23T03:47:52.406Z,54.61
2018-08-23T03:48:52.363Z,55.24
2018-08-23T03:49:52.318Z,55.43
2018-08-23T03:50:52.271Z,54.94
2018-08-23T03:51:52.251Z,55.76
2018-08-23T03:52:52.178Z,55.83
2018-08-23T03:53:52.138Z,56.06
2018-08-23T03:54:52.094Z,55.66
2018-08-23T03:55:52.064Z,55.96
2018-08-23T03:56:52.038Z,55.86
2018-08-23T03:57:51.974Z,56.06
2018-08-23T03:58:51.929Z,55.79
2018-08-23T03:59:51.895Z,55.76
2018-08-23T04:00:51.846Z,55.76
2018-08-23T04:01:51.832Z,55.36
2018-08-23T04:02:51.767Z,55.26
2018-08-23T04:03:51.723Z,55.96
2018-08-23T04:04:51.674Z,54.94
2018-08-23T04:05:51.633Z,55.26
2018-08-23T04:06:51.615Z,55.43
2018-08-23T04:07:51.549Z,55.24
2018-08-23T04:08:51.510Z,54.74
2018-08-23T04:09:51.467Z,54.91
2018-08-23T04:10:51.428Z,54.94
2018-08-23T04:11:51.406Z,55.11
2018-08-23T04:12:51.332Z,54.91
2018-08-23T04:13:51.285Z,54.61
2018-08-23T04:14:51.244Z,55.01
2018-08-23T04:15:51.206Z,54.91
2018-08-23T04:16:51.184Z,54.51
2018-08-23T04:17:51.116Z,55.41
2018-08-23T04:18:51.802Z,55.01
2018-08-23T04:19:51.033Z,54.01
2018-08-23T04:20:50.993Z,54.21
2018-08-23T04:21:50.974Z,54.04
2018-08-23T04:22:50.935Z,54.51
2018-08-23T04:23:50.861Z,54.31
2018-08-23T04:24:50.814Z,54.31
2018-08-23T04:25:50.774Z,54.81
2018-08-23T04:26:50.749Z,54.81
2018-08-23T04:27:50.681Z,54.61
2018-08-23T04:28:50.635Z,55.21
2018-08-23T04:29:50.588Z,55.51
2018-08-23T04:30:50.541Z,55.31
2018-08-23T04:31:50.535Z,55.01
2018-08-23T04:32:50.453Z,54.71
2018-08-23T04:33:50.411Z,54.61
2018-08-23T04:34:50.357Z,55.11
2018-08-23T04:35:50.313Z,55.01
2018-08-23T04:36:50.269Z,55.21
2018-08-23T04:37:50.246Z,55.31
2018-08-23T04:38:50.175Z,55.61
2018-08-23T04:39:50.139Z,55.73
2018-08-23T04:40:50.083Z,55.83
2018-08-23T04:41:50.042Z,55.83
2018-08-23T04:42:50.034Z,56.06
2018-08-23T04:43:49.958Z,56.46
2018-08-23T04:44:49.917Z,55.66
2018-08-23T04:45:49.882Z,55.96
2018-08-23T04:46:49.848Z,56.85
2018-08-23T04:47:49.840Z,56.68
2018-08-23T04:48:49.772Z,56.85
2018-08-23T04:49:49.735Z,56.96
2018-08-23T04:50:49.692Z,56.85
2018-08-23T04:51:49.745Z,56.59
2018-08-23T04:52:49.643Z,57.58
2018-08-23T04:53:49.574Z,57.39
2018-08-23T04:54:49.531Z,57.58
2018-08-23T04:55:49.496Z,57.68
2018-08-23T04:56:49.453Z,57.41
2018-08-23T04:57:49.438Z,58.01
2018-08-23T04:58:49.419Z,56.91
2018-08-23T04:59:50.340Z,57.48
2018-08-23T05:00:49.313Z,57.61
2018-08-23T05:01:49.271Z,57.61
2018-08-23T05:02:49.264Z,57.68
2018-08-23T05:03:49.211Z,57.61
2018-08-23T05:04:49.155Z,57.51
2018-08-23T05:05:49.120Z,57.61
2018-08-23T05:06:49.085Z,57.39
2018-08-23T05:07:49.076Z,56.71
2018-08-23T05:08:49.009Z,57.01
2018-08-23T05:09:48.971Z,56.98
2018-08-23T05:10:48.932Z,56.88
2018-08-23T05:11:48.894Z,56.38
2018-08-23T05:12:48.882Z,56.48
2018-08-23T05:13:48.818Z,55.76
2018-08-23T05:14:48.777Z,55.56
2018-08-23T05:15:48.737Z,55.76
2018-08-23T05:16:48.699Z,56.79
2018-08-23T05:17:48.687Z,55.79
2018-08-23T05:18:48.618Z,56.09
2018-08-23T05:19:48.577Z,56.06
2018-08-23T05:20:48.538Z,55.69
2018-08-23T05:21:48.498Z,55.66
2018-08-23T05:22:48.487Z,56.56
2018-08-23T05:23:48.418Z,56.96
2018-08-23T05:24:48.373Z,56.85
2018-08-23T05:25:48.334Z,56.85
2018-08-23T05:26:48.296Z,57.15
2018-08-23T05:27:48.255Z,56.96
2018-08-23T05:28:48.242Z,57.48
2018-08-23T05:29:48.224Z,57.58
2018-08-23T05:30:48.134Z,57.46
2018-08-23T05:31:48.091Z,57.35
2018-08-23T05:32:48.053Z,58.06
2018-08-23T05:33:48.039Z,58.08
2018-08-23T05:34:47.977Z,57.88
2018-08-23T05:35:47.933Z,58.08
2018-08-23T05:36:47.894Z,57.88
2018-08-23T05:37:47.854Z,57.98
2018-08-23T05:38:47.838Z,57.58
2018-08-23T05:39:47.772Z,57.78
2018-08-23T05:40:47.732Z,58.08
2018-08-23T05:41:47.709Z,57.68
2018-08-23T05:42:47.653Z,57.88
2018-08-23T05:43:47.642Z,58.06
2018-08-23T05:44:47.585Z,57.68
2018-08-23T05:45:47.535Z,58.38
2018-08-23T05:46:47.494Z,57.88
2018-08-23T05:47:47.485Z,58.18
2018-08-23T05:48:47.443Z,57.88
2018-08-23T05:49:47.375Z,57.86
2018-08-23T05:50:47.332Z,57.58
2018-08-23T05:51:47.290Z,57.35
2018-08-23T05:52:47.247Z,57.35
2018-08-23T05:53:47.238Z,57.56
2018-08-23T05:54:47.164Z,57.06
2018-08-23T05:55:47.124Z,56.83
2018-08-23T05:56:47.086Z,56.53
2018-08-23T05:57:47.040Z,56.63
2018-08-23T05:58:47.026Z,56.83
2018-08-23T05:59:46.951Z,56.70
2018-08-23T06:00:46.908Z,57.30
2018-08-23T06:01:46.865Z,57.20
2018-08-23T06:02:46.835Z,57.20
2018-08-23T06:03:46.804Z,57.20
2018-08-23T06:04:46.733Z,57.10
2018-08-23T06:05:46.689Z,56.40
2018-08-23T06:06:46.644Z,57.50
2018-08-23T06:07:46.592Z,56.70
2018-08-23T06:08:46.570Z,56.68
2018-08-23T06:09:46.494Z,57.20
2018-08-23T06:10:46.439Z,57.17
2018-08-23T06:11:46.387Z,57.07
2018-08-23T06:12:46.374Z,57.28
2018-08-23T06:13:46.279Z,57.87
2018-08-23T06:14:46.248Z,57.87
2018-08-23T06:15:46.171Z,57.87
2018-08-23T06:16:46.124Z,57.87
2018-08-23T06:17:46.076Z,57.47
2018-08-23T06:18:46.024Z,57.87
2018-08-23T06:19:46.009Z,57.87
2018-08-23T06:20:45.915Z,58.07
2018-08-23T06:21:45.863Z,57.97
2018-08-23T06:22:45.804Z,57.17
2018-08-23T06:23:45.753Z,57.28
2018-08-23T06:24:45.728Z,57.47
2018-08-23T06:25:45.646Z,57.57
2018-08-23T06:26:45.594Z,57.24
2018-08-23T06:27:45.545Z,56.18
2018-08-23T06:28:45.494Z,56.48
2018-08-23T06:29:45.471Z,55.48
2018-08-23T06:30:45.395Z,55.88
2018-08-23T06:31:45.339Z,55.88
2018-08-23T06:32:45.301Z,55.76
2018-08-23T06:33:45.341Z,55.65
2018-08-23T06:34:45.213Z,55.46
2018-08-23T06:35:45.307Z,55.05
2018-08-23T06:36:45.086Z,55.35
2018-08-23T06:37:45.036Z,55.05
2018-08-23T06:38:45.081Z,55.23
2018-08-23T06:39:44.956Z,55.43
2018-08-23T06:40:44.878Z,54.83
2018-08-23T06:41:44.825Z,55.33
2018-08-23T06:42:44.774Z,55.30
2018-08-23T06:43:44.722Z,55.10
2018-08-23T06:44:44.698Z,55.00
2018-08-23T06:45:44.618Z,55.30
2018-08-23T06:46:44.567Z,54.90
2018-08-23T06:47:44.511Z,55.20
2018-08-23T06:48:44.458Z,55.18
2018-08-23T06:49:44.427Z,55.18
2018-08-23T06:50:44.340Z,54.97
2018-08-23T06:51:44.279Z,54.58
2018-08-23T06:52:44.220Z,54.68
2018-08-23T06:53:44.160Z,54.68
2018-08-23T06:54:44.146Z,53.98
2018-08-23T06:55:44.051Z,53.78
2018-08-23T06:56:43.995Z,53.66
2018-08-23T06:57:43.941Z,54.06
2018-08-23T06:58:43.910Z,54.06
2018-08-23T06:59:43.828Z,53.66
2018-08-23T07:00:43.799Z,54.55
2018-08-23T07:01:43.713Z,53.56
2018-08-23T07:02:43.660Z,53.53
2018-08-23T07:03:43.600Z,54.03
2018-08-23T07:04:43.540Z,54.03
2018-08-23T07:05:43.507Z,53.83
2018-08-23T07:06:43.513Z,54.03
2018-08-23T07:07:43.347Z,53.63
2018-08-23T07:08:43.285Z,54.03
2018-08-23T07:09:43.216Z,53.93
2018-08-23T07:10:43.211Z,54.13
2018-08-23T07:11:43.110Z,54.13
2018-08-23T07:12:43.027Z,53.83
2018-08-23T07:13:42.962Z,54.03
2018-08-23T07:14:42.897Z,53.73
2018-08-23T07:15:42.853Z,53.23
2018-08-23T07:16:42.758Z,53.53
2018-08-23T07:17:42.847Z,53.14
2018-08-23T07:18:42.620Z,53.63
2018-08-23T07:19:42.554Z,54.13
2018-08-23T07:20:42.507Z,54.13
2018-08-23T07:21:42.409Z,53.73
2018-08-23T07:22:42.336Z,53.61
2018-08-23T07:23:42.265Z,54.50
2018-08-23T07:24:42.207Z,54.40
2018-08-23T07:25:42.150Z,53.80
2018-08-23T07:26:42.047Z,53.70
2018-08-23T07:27:41.974Z,53.21
2018-08-23T07:28:41.902Z,53.21
2018-08-23T07:29:41.868Z,53.61
2018-08-23T07:30:41.782Z,53.21
2018-08-23T07:31:41.694Z,52.69
2018-08-23T07:32:41.603Z,52.49
2018-08-23T07:33:41.535Z,52.79
2018-08-23T07:34:41.457Z,52.19
2018-08-23T07:35:41.406Z,52.76
2018-08-23T07:36:41.305Z,52.76
2018-08-23T07:37:41.229Z,52.86
2018-08-23T07:38:41.153Z,52.66
2018-08-23T07:39:41.072Z,52.47
2018-08-23T07:40:41.020Z,52.47
2018-08-23T07:41:40.918Z,52.47
2018-08-23T07:42:40.837Z,53.06
2018-08-23T07:43:40.762Z,52.66
2018-08-23T07:44:40.683Z,53.06
2018-08-23T07:45:40.621Z,52.54
2018-08-23T07:46:40.515Z,52.96
2018-08-23T07:47:40.437Z,52.26
2018-08-23T07:48:40.461Z,52.66
2018-08-23T07:49:40.331Z,53.03
2018-08-23T07:50:40.234Z,52.04
2018-08-23T07:51:40.130Z,51.87
2018-08-23T07:52:40.050Z,52.17
2018-08-23T07:53:39.966Z,52.24
2018-08-23T07:54:39.887Z,52.84
2018-08-23T07:55:39.809Z,52.64
2018-08-23T07:56:39.759Z,52.73
2018-08-23T07:57:39.653Z,51.65
2018-08-23T07:58:39.572Z,51.84
2018-08-23T07:59:39.501Z,52.14
2018-08-23T08:00:39.413Z,51.84
2018-08-23T08:01:39.365Z,51.45
2018-08-23T08:02:39.253Z,51.35
2018-08-23T08:03:39.172Z,51.25
2018-08-23T08:04:39.092Z,51.45
2018-08-23T08:05:39.012Z,51.35
2018-08-23T08:06:38.951Z,51.35
2018-08-23T08:07:38.843Z,51.65
2018-08-23T08:08:38.759Z,51.15
2018-08-23T08:09:38.679Z,50.95
2018-08-23T08:10:38.600Z,50.93
2018-08-23T08:11:38.541Z,50.53
2018-08-23T08:12:38.436Z,50.73
2018-08-23T08:13:38.350Z,50.63
2018-08-23T08:14:38.267Z,50.76
2018-08-23T08:15:38.189Z,50.65
2018-08-23T08:16:38.133Z,50.56
2018-08-23T08:17:38.030Z,50.34
2018-08-23T08:18:37.957Z,50.73
2018-08-23T08:19:37.871Z,50.93
2018-08-23T08:20:37.797Z,50.34
2018-08-23T08:21:37.746Z,50.53
2018-08-23T08:22:37.630Z,50.83
2018-08-23T08:23:37.544Z,50.71
2018-08-23T08:24:37.461Z,50.34
2018-08-23T08:25:37.381Z,50.04
2018-08-23T08:26:37.315Z,49.84
2018-08-23T08:27:37.202Z,49.71
2018-08-23T08:28:37.117Z,49.91
2018-08-23T08:29:37.027Z,49.91
2018-08-23T08:30:36.939Z,49.91
2018-08-23T08:31:36.885Z,49.91
2018-08-23T08:32:36.761Z,49.52
2018-08-23T08:33:36.677Z,49.71
2018-08-23T08:34:36.589Z,49.81
2018-08-23T08:35:36.510Z,49.81
2018-08-23T08:36:36.447Z,49.29
2018-08-23T08:37:36.326Z,49.40
2018-08-23T08:38:36.237Z,49.69
2018-08-23T08:39:36.146Z,48.90
2018-08-23T08:40:36.062Z,49.10
2018-08-23T08:41:36.014Z,49.27
2018-08-23T08:42:35.883Z,48.77
2018-08-23T08:43:35.785Z,48.77
2018-08-23T08:44:35.690Z,48.06
2018-08-23T08:45:35.598Z,48.16
2018-08-23T08:46:35.517Z,47.77
2018-08-23T08:47:35.428Z,48.16
2018-08-23T08:48:35.309Z,46.97
2018-08-23T08:49:35.213Z,47.86
2018-08-23T08:50:35.280Z,47.44
2018-08-23T08:51:35.022Z,47.54
2018-08-23T08:52:34.956Z,47.64
2018-08-23T08:53:34.833Z,47.05
2018-08-23T08:54:34.732Z,46.85
2018-08-23T08:55:34.656Z,47.34
2018-08-23T08:56:34.519Z,46.95
2018-08-23T08:57:34.497Z,46.55
2018-08-23T08:58:34.310Z,46.55
2018-08-23T08:59:34.207Z,46.53
2018-08-23T09:00:34.100Z,46.93
2018-08-23T09:01:34.006Z,46.44
2018-08-23T09:02:33.928Z,46.93
2018-08-23T09:03:33.794Z,47.03
2018-08-23T09:04:33.689Z,46.23
2018-08-23T09:05:33.590Z,46.04
2018-08-23T09:06:33.490Z,45.84
2018-08-23T09:07:33.423Z,46.16
2018-08-23T09:08:33.276Z,46.06
2018-08-23T09:09:33.175Z,46.66
2018-08-23T09:10:33.070Z,46.75
2018-08-23T09:11:32.967Z,47.34
2018-08-23T09:12:32.889Z,47.05
2018-08-23T09:13:32.757Z,47.25
2018-08-23T09:14:32.654Z,47.15
2018-08-23T09:15:32.550Z,47.32
2018-08-23T09:16:32.442Z,47.25
2018-08-23T09:17:32.365Z,47.22
2018-08-23T09:18:32.227Z,46.83
2018-08-23T09:19:32.119Z,47.03
2018-08-23T09:20:32.059Z,46.63
2018-08-23T09:21:31.904Z,46.23
2018-08-23T09:22:31.823Z,45.82
2018-08-23T09:23:31.686Z,45.74
2018-08-23T09:24:31.575Z,46.23
2018-08-23T09:25:31.472Z,45.94
2018-08-23T09:26:31.367Z,46.33
2018-08-23T09:27:31.266Z,45.72
2018-08-23T09:28:31.129Z,45.92
2018-08-23T09:29:31.020Z,45.32
2018-08-23T09:30:30.911Z,45.52
2018-08-23T09:31:30.806Z,45.62
2018-08-23T09:32:30.729Z,45.82
2018-08-23T09:33:30.589Z,45.42
2018-08-23T09:34:30.481Z,45.72
2018-08-23T09:35:30.369Z,45.40
2018-08-23T09:36:30.258Z,45.20
2018-08-23T09:37:30.143Z,45.42
2018-08-23T09:38:30.057Z,45.82
2018-08-23T09:39:29.918Z,45.72
2018-08-23T09:40:29.804Z,45.42
2018-08-23T09:41:29.685Z,45.23
2018-08-23T09:42:29.569Z,45.30
2018-08-23T09:43:29.487Z,45.23
2018-08-23T09:44:29.332Z,44.51
2018-08-23T09:45:29.221Z,44.61
2018-08-23T09:46:29.102Z,44.61
2018-08-23T09:47:28.986Z,44.51
2018-08-23T09:48:28.900Z,44.51
2018-08-23T09:49:28.758Z,44.29
2018-08-23T09:50:28.640Z,43.60
2018-08-23T09:51:28.523Z,43.51
2018-08-23T09:52:28.405Z,43.31
2018-08-23T09:53:28.319Z,43.41
2018-08-23T09:54:28.182Z,43.70
2018-08-23T09:55:28.066Z,43.41
2018-08-23T09:56:27.978Z,43.31
2018-08-23T09:57:27.831Z,43.51
2018-08-23T09:58:27.743Z,43.88
2018-08-23T09:59:27.601Z,43.19
2018-08-23T10:00:27.487Z,42.82
2018-08-23T10:01:27.375Z,42.50
2018-08-23T10:02:27.256Z,42.72
2018-08-23T10:03:27.167Z,43.19
2018-08-23T10:04:27.123Z,42.60
2018-08-23T10:05:26.902Z,43.21
2018-08-23T10:06:26.784Z,42.89
2018-08-23T10:07:26.666Z,42.30
2018-08-23T10:08:26.573Z,41.91
2018-08-23T10:09:26.430Z,42.10
2018-08-23T10:10:26.313Z,41.02
2018-08-23T10:11:26.227Z,41.22
2018-08-23T10:12:26.077Z,41.12
2018-08-23T10:13:25.990Z,41.91
2018-08-23T10:14:25.840Z,41.91
2018-08-23T10:15:25.726Z,41.53
2018-08-23T10:16:25.607Z,41.12
2018-08-23T10:17:25.489Z,41.31
2018-08-23T10:18:25.399Z,41.14
2018-08-23T10:19:25.268Z,41.61
2018-08-23T10:20:25.142Z,41.41
2018-08-23T10:21:25.027Z,41.22
2018-08-23T10:22:24.916Z,41.63
2018-08-23T10:23:24.831Z,41.02
2018-08-23T10:24:24.692Z,41.91
2018-08-23T10:25:24.572Z,41.91
2018-08-23T10:26:24.512Z,42.10
2018-08-23T10:27:24.336Z,41.61
2018-08-23T10:28:24.248Z,42.00
2018-08-23T10:29:24.108Z,41.71
2018-08-23T10:30:23.985Z,41.12
2018-08-23T10:31:23.868Z,41.91
2018-08-23T10:32:23.860Z,41.61
2018-08-23T10:33:23.662Z,42.00
2018-08-23T10:34:23.520Z,41.71
2018-08-23T10:35:23.403Z,41.91
2018-08-23T10:36:23.285Z,41.91
2018-08-23T10:37:23.178Z,41.31
2018-08-23T10:38:23.090Z,42.50
2018-08-23T10:39:22.929Z,41.71
2018-08-23T10:40:22.811Z,41.49
2018-08-23T10:41:22.690Z,41.91
2018-08-23T10:42:22.567Z,41.22
2018-08-23T10:43:22.454Z,41.22
2018-08-23T10:44:22.390Z,41.09
2018-08-23T10:45:22.215Z,41.59
2018-08-23T10:46:22.110Z,40.90
2018-08-23T10:47:21.981Z,40.80
2018-08-23T10:48:21.862Z,41.09
2018-08-23T10:49:21.775Z,41.09
2018-08-23T10:50:21.632Z,41.30
2018-08-23T10:51:21.516Z,41.49
2018-08-23T10:52:21.393Z,41.59
2018-08-23T10:53:21.281Z,41.49
2018-08-23T10:54:21.184Z,41.69
2018-08-23T10:55:21.035Z,41.49
2018-08-23T10:56:20.913Z,41.69
2018-08-23T10:57:20.790Z,40.88
2018-08-23T10:58:20.676Z,41.57
2018-08-23T10:59:20.577Z,40.69
2018-08-23T11:00:20.428Z,40.29
2018-08-23T11:01:20.308Z,39.89
2018-08-23T11:02:20.184Z,39.70
2018-08-23T11:03:20.061Z,40.00
2018-08-23T11:04:19.966Z,40.17
2018-08-23T11:05:19.817Z,39.20
2018-08-23T11:06:19.715Z,39.68
2018-08-23T11:07:19.564Z,40.08
2018-08-23T11:08:19.432Z,40.08
2018-08-23T11:09:19.340Z,39.97
2018-08-23T11:10:19.181Z,40.08
2018-08-23T11:11:19.054Z,39.78
2018-08-23T11:12:18.927Z,39.58
2018-08-23T11:13:18.797Z,39.97
2018-08-23T11:14:18.696Z,38.99
2018-08-23T11:15:18.558Z,39.09
2018-08-23T11:16:18.416Z,39.39
2018-08-23T11:17:18.383Z,39.28
2018-08-23T11:18:18.156Z,38.79
2018-08-23T11:19:18.055Z,39.18
2018-08-23T11:20:17.896Z,39.26
2018-08-23T11:21:17.764Z,39.07
2018-08-23T11:22:17.632Z,38.87
2018-08-23T11:23:17.500Z,38.97
2018-08-23T11:24:17.392Z,38.85
2018-08-23T11:25:17.235Z,39.44
2018-08-23T11:26:17.101Z,38.46
2018-08-23T11:27:16.974Z,39.05
2018-08-23T11:28:16.824Z,38.24
2018-08-23T11:29:16.715Z,38.44
2018-08-23T11:30:16.549Z,38.84
2018-08-23T11:31:16.411Z,38.74
2018-08-23T11:32:16.277Z,38.24
2018-08-23T11:33:16.137Z,38.54
2018-08-23T11:34:16.023Z,38.74
2018-08-23T11:35:15.975Z,38.62
2018-08-23T11:36:15.716Z,38.13
2018-08-23T11:37:15.569Z,37.15
2018-08-23T11:38:15.423Z,36.97
2018-08-23T11:39:15.319Z,37.54
2018-08-23T11:40:15.144Z,37.24
2018-08-23T11:41:14.995Z,37.54
2018-08-23T11:42:14.853Z,38.13
2018-08-23T11:43:14.708Z,37.07
2018-08-23T11:44:14.566Z,37.07
2018-08-23T11:45:14.444Z,38.34
2018-08-23T11:46:14.270Z,38.74
2018-08-23T11:47:14.126Z,38.76
2018-08-23T11:48:13.985Z,39.03
2018-08-23T11:49:13.850Z,38.54
2018-08-23T11:50:13.728Z,38.05
2018-08-23T11:51:13.560Z,38.24
2018-08-23T11:52:13.418Z,38.52
2018-08-23T11:53:13.316Z,38.03
2018-08-23T11:54:13.124Z,38.42
2018-08-23T11:55:13.024Z,37.93
2018-08-23T11:56:12.836Z,37.23
2018-08-23T11:57:12.697Z,37.42
2018-08-23T11:58:12.540Z,36.63
2018-08-23T11:59:12.408Z,37.50
2018-08-23T12:00:12.262Z,37.01
2018-08-23T12:01:12.101Z,37.30
2018-08-23T12:02:11.984Z,37.11
2018-08-23T12:03:11.774Z,37.11
2018-08-23T12:04:11.617Z,36.52
2018-08-23T12:05:11.511Z,36.91
2018-08-23T12:06:11.310Z,36.99
2018-08-23T12:07:11.152Z,37.19
2018-08-23T12:08:10.994Z,37.29
2018-08-23T12:09:10.837Z,37.11
2018-08-23T12:10:10.689Z,37.01
2018-08-23T12:11:10.555Z,35.74
2018-08-23T12:12:10.372Z,36.51
2018-08-23T12:13:10.220Z,36.51
2018-08-23T12:14:10.065Z,36.11
2018-08-23T12:15:09.909Z,36.39
2018-08-23T12:16:09.776Z,35.91
2018-08-23T12:17:09.597Z,36.39
2018-08-23T12:18:09.438Z,36.39
2018-08-23T12:19:09.280Z,37.07
2018-08-23T12:20:09.122Z,35.60
2018-08-23T12:21:08.994Z,35.97
2018-08-23T12:22:08.802Z,36.18
2018-08-23T12:23:08.644Z,35.78
2018-08-23T12:24:08.481Z,35.49
2018-08-23T12:25:08.321Z,35.68
2018-08-23T12:26:08.247Z,35.39
2018-08-23T12:27:08.019Z,35.86
2018-08-23T12:28:07.835Z,36.27
2018-08-23T12:29:07.697Z,35.97
2018-08-23T12:30:07.491Z,36.16
2018-08-23T12:31:07.347Z,35.96
2018-08-23T12:32:07.151Z,35.55
2018-08-23T12:33:06.982Z,35.65
2018-08-23T12:34:06.807Z,35.55
2018-08-23T12:35:06.637Z,35.63
2018-08-23T12:36:06.483Z,36.02
2018-08-23T12:37:06.274Z,35.03
2018-08-23T12:38:06.107Z,35.32
2018-08-23T12:39:05.917Z,34.83
2018-08-23T12:40:05.739Z,34.23
2018-08-23T12:41:05.663Z,34.33
2018-08-23T12:42:05.375Z,34.33
2018-08-23T12:43:05.193Z,34.03
2018-08-23T12:44:05.013Z,33.43
2018-08-23T12:45:04.830Z,34.03
2018-08-23T12:46:04.670Z,33.04
2018-08-23T12:47:04.467Z,33.53
2018-08-23T12:48:04.278Z,33.72
2018-08-23T12:49:04.094Z,33.23
2018-08-23T12:50:03.907Z,32.94
2018-08-23T12:51:03.754Z,32.06